Time;durP1;ratioP1;P1;durP2;ratioP2;P2;SDS_P1;SDS_P2;PMS_P1;PMS_P2;Temp;Humidity;BMP_temperature;BMP_pressure;BME280_temperature;BME280_humidity;BME280_pressure;Samples;Min_cycle;Max_cycle;Signal;HPM_P1;HPM_P2
2023/05/10 00:01:42;;;;;;;11.93;6.85;;;;;;;10.91;100.00;100607.88;5006229;28;20030;-18
2023/05/10 00:04:07;;;;;;;11.85;7.40;;;;;;;10.92;100.00;100606.88;5006374;28;20034;-20
2023/05/10 00:06:33;;;;;;;15.27;7.28;;;;;;;11.12;100.00;100605.00;5006050;28;20022;-17
2023/05/10 00:08:58;;;;;;;11.60;6.70;;;;;;;10.85;100.00;100597.03;5005818;28;20032;-18
2023/05/10 00:11:24;;;;;;;12.18;7.10;;;;;;;10.82;100.00;100594.78;5006201;28;20053;-18
2023/05/10 00:13:49;;;;;;;9.95;6.60;;;;;;;10.85;100.00;100593.56;5005845;28;20041;-18
2023/05/10 00:16:15;;;;;;;10.98;6.45;;;;;;;10.81;100.00;100600.34;5006323;28;20042;-18
2023/05/10 00:18:40;;;;;;;10.00;5.85;;;;;;;10.53;100.00;100589.88;5005661;28;20030;-18
2023/05/10 00:21:06;;;;;;;10.77;6.28;;;;;;;10.34;100.00;100594.16;5006148;28;20129;-18
2023/05/10 00:23:31;;;;;;;11.65;6.25;;;;;;;10.49;100.00;100583.31;5005800;28;20038;-17
2023/05/10 00:25:57;;;;;;;16.00;6.65;;;;;;;10.57;100.00;100583.13;5006160;28;20041;-18
2023/05/10 00:28:23;;;;;;;11.38;7.03;;;;;;;10.41;100.00;100579.81;5005913;28;20030;-18
2023/05/10 00:30:48;;;;;;;13.00;6.75;;;;;;;10.42;100.00;100578.81;5005559;28;20118;-19
2023/05/10 00:33:14;;;;;;;12.77;6.78;;;;;;;10.58;100.00;100579.41;5005686;28;20069;-21
2023/05/10 00:35:40;;;;;;;8.98;6.32;;;;;;;10.57;100.00;100573.25;5005587;28;20060;-18
2023/05/10 00:38:05;;;;;;;12.32;6.45;;;;;;;10.44;100.00;100579.44;5005971;28;20041;-18
2023/05/10 00:40:31;;;;;;;12.23;6.35;;;;;;;10.31;100.00;100568.75;5005661;28;20037;-18
2023/05/10 00:42:58;;;;;;;13.32;6.88;;;;;;;10.32;100.00;100575.72;5005687;28;20060;-19
2023/05/10 00:45:23;;;;;;;9.35;6.20;;;;;;;10.35;100.00;100575.31;5005496;28;20034;-17
2023/05/10 00:47:49;;;;;;;8.32;5.78;;;;;;;10.29;100.00;100573.44;5005575;28;20028;-18
2023/05/10 00:50:15;;;;;;;11.80;6.50;;;;;;;10.39;100.00;100576.53;5005441;28;20143;-17
2023/05/10 00:52:42;;;;;;;10.63;6.03;;;;;;;10.21;100.00;100584.28;5005521;28;20033;-18
2023/05/10 00:55:09;;;;;;;10.75;6.43;;;;;;;10.48;100.00;100577.16;5005630;28;20104;-19
2023/05/10 00:57:35;;;;;;;11.87;6.87;;;;;;;10.43;100.00;100580.44;5005392;28;20026;-17
2023/05/10 01:00:02;;;;;;;12.07;6.28;;;;;;;10.39;100.00;100584.53;5005668;28;20054;-18
2023/05/10 01:02:28;;;;;;;12.23;6.80;;;;;;;10.54;100.00;100578.19;5005436;28;20113;-18
2023/05/10 01:04:54;;;;;;;11.25;6.00;;;;;;;10.75;100.00;100580.63;5005244;28;20783;-18
2023/05/10 01:07:19;;;;;;;11.00;6.80;;;;;;;10.31;100.00;100568.75;5004862;28;20460;-18
2023/05/10 01:09:45;;;;;;;11.13;6.03;;;;;;;10.34;100.00;100571.00;5005066;28;20026;-18
2023/05/10 01:12:11;;;;;;;12.30;6.03;;;;;;;10.33;100.00;100574.69;5005150;28;20434;-17
2023/05/10 01:14:37;;;;;;;12.27;6.82;;;;;;;10.16;100.00;100565.44;5005107;28;20467;-17
2023/05/10 01:17:04;;;;;;;13.38;6.60;;;;;;;10.29;100.00;100564.63;5005238;28;20030;-17
2023/05/10 01:19:31;;;;;;;10.30;5.97;;;;;;;10.20;100.00;100550.69;5005142;28;20040;-20
2023/05/10 01:22:18;;;;;;;12.18;6.38;;;;;;;10.24;100.00;100573.22;5005431;28;20052;-18
2023/05/10 01:25:00;;;;;;;11.70;6.22;;;;;;;10.00;100.00;100551.47;5004964;28;20181;-18
2023/05/10 01:27:55;;;;;;;12.35;7.30;;;;;;;10.24;100.00;100575.91;5004966;28;20121;-18
2023/05/10 01:30:45;;;;;;;11.57;6.40;;;;;;;10.08;100.00;100579.78;5005220;28;20135;-19
2023/05/10 01:33:36;;;;;;;10.25;5.78;;;;;;;10.22;100.00;100583.28;5004788;28;20121;-18
2023/05/10 01:36:34;;;;;;;9.82;6.30;;;;;;;10.39;100.00;100576.53;5005400;28;20112;-18
2023/05/10 01:39:09;;;;;;;11.18;6.20;;;;;;;10.20;100.00;100572.00;4997125;28;20501;-22
2023/05/10 01:41:49;;;;;;;10.27;6.47;;;;;;;10.22;100.00;100562.78;5004981;28;20033;-18
2023/05/10 01:44:39;;;;;;;10.93;6.30;;;;;;;10.45;100.00;100581.06;5004970;28;20416;-22
2023/05/10 01:47:15;;;;;;;10.02;6.70;;;;;;;10.54;100.00;100575.50;5005260;28;20037;-18
2023/05/10 01:49:49;;;;;;;12.35;6.53;;;;;;;10.19;100.00;100551.69;5004780;28;20040;-18
2023/05/10 01:52:21;;;;;;;9.50;5.93;;;;;;;10.27;100.00;100565.63;5004817;28;20048;-16
2023/05/10 01:54:55;;;;;;;10.90;6.55;;;;;;;10.39;100.00;100549.88;5005340;28;20838;-18
2023/05/10 01:57:25;;;;;;;12.35;6.57;;;;;;;10.20;100.00;100558.69;5004583;28;20041;-18
2023/05/10 01:59:52;;;;;;;13.73;6.30;;;;;;;10.23;100.00;100561.72;5004691;28;20034;-18
2023/05/10 02:02:20;;;;;;;12.38;6.38;;;;;;;10.13;100.00;100560.50;5004852;28;20146;-19
2023/05/10 02:04:47;;;;;;;9.98;6.03;;;;;;;10.55;100.00;100567.31;5004959;28;20144;-18
2023/05/10 02:07:14;;;;;;;12.55;6.80;;;;;;;10.38;100.00;100580.25;5004689;28;20428;-19
2023/05/10 02:09:42;;;;;;;9.82;6.15;;;;;;;10.41;100.00;100573.66;5004580;28;20928;-18
2023/05/10 02:12:08;;;;;;;11.55;6.57;;;;;;;10.38;100.00;100571.41;5004803;28;20092;-18
2023/05/10 02:14:36;;;;;;;9.32;6.25;;;;;;;10.25;100.00;100564.19;5004909;28;20034;-19
2023/05/10 02:17:05;;;;;;;11.77;7.05;;;;;;;10.26;100.00;100571.19;5004732;28;20073;-19
2023/05/10 02:19:32;;;;;;;;;;;;;;;10.26;100.00;100566.66;5008960;28;20061;-17
2023/05/10 02:21:59;;;;;;;11.13;6.97;;;;;;;10.25;100.00;100569.53;5008307;28;19913;-18
2023/05/10 02:24:25;;;;;;;12.95;7.30;;;;;;;10.43;100.00;100568.97;5008247;28;20045;-18
2023/05/10 02:26:55;;;;;;;13.38;8.23;;;;;;;10.27;100.00;100568.28;5008240;28;20030;-17
2023/05/10 02:29:24;;;;;;;13.27;8.73;;;;;;;10.18;100.00;100555.41;5007847;28;21291;-18
2023/05/10 02:31:52;;;;;;;15.10;8.90;;;;;;;10.23;100.00;100572.38;5007790;28;20038;-18
2023/05/10 02:34:19;;;;;;;17.88;9.48;;;;;;;10.05;100.00;100570.34;5007567;28;20417;-17
2023/05/10 02:36:44;;;;;;;16.58;8.98;;;;;;;10.19;100.00;100583.66;5007761;28;20034;-18
2023/05/10 02:39:13;;;;;;;15.10;8.88;;;;;;;10.01;100.00;100577.09;5008048;28;20037;-18
2023/05/10 02:41:40;;;;;;;15.05;8.73;;;;;;;9.98;100.00;100582.00;5007611;28;20472;-22
2023/05/10 02:44:07;;;;;;;14.55;8.27;;;;;;;9.99;100.00;100563.16;5007907;28;20604;-18
2023/05/10 02:46:33;;;;;;;14.85;8.50;;;;;;;10.23;100.00;100561.72;5007774;28;20057;-18
2023/05/10 02:48:59;;;;;;;12.45;8.30;;;;;;;10.22;100.00;100569.94;5007703;28;20040;-18
2023/05/10 02:51:31;;;;;;;13.07;7.97;;;;;;;10.14;100.00;100567.50;5007816;28;20033;-18
2023/05/10 02:53:59;;;;;;;14.60;7.88;;;;;;;10.21;100.00;100579.78;5007722;28;20038;-18
2023/05/10 02:56:31;;;;;;;14.02;7.90;;;;;;;9.86;100.00;100550.63;5007384;28;20597;-18
2023/05/10 02:58:57;;;;;;;13.68;8.13;;;;;;;10.10;100.00;100566.25;5007378;28;20033;-18
2023/05/10 03:01:23;;;;;;;13.10;7.65;;;;;;;10.07;100.00;100572.78;5007184;28;20033;-17
2023/05/10 03:03:48;;;;;;;13.80;8.00;;;;;;;10.16;100.00;100573.44;5007415;28;20030;-18
2023/05/10 03:06:14;;;;;;;13.15;7.95;;;;;;;10.13;100.00;100571.16;5007305;28;20044;-18
2023/05/10 03:08:39;;;;;;;11.65;8.35;;;;;;;9.99;100.00;100560.50;5007243;28;20037;-17
2023/05/10 03:11:32;;;;;;;14.23;8.50;;;;;;;10.12;100.00;100582.84;5007045;28;20425;-18
2023/05/10 03:14:10;;;;;;;14.35;9.73;;;;;;;9.99;100.00;100575.66;5007154;28;20156;-17
2023/05/10 03:16:49;;;;;;;14.50;8.73;;;;;;;9.85;100.00;100564.97;5007373;28;20033;-17
2023/05/10 03:19:29;;;;;;;12.10;7.25;;;;;;;9.91;100.00;100566.03;5007164;28;20076;-18
2023/05/10 03:21:58;;;;;;;12.05;7.75;;;;;;;9.92;100.00;100557.00;5007070;28;20044;-19
2023/05/10 03:24:28;;;;;;;14.65;6.88;;;;;;;9.99;100.00;100571.16;5006903;28;20518;-19
2023/05/10 03:26:56;;;;;;;15.60;8.05;;;;;;;10.12;100.00;100572.19;5007144;28;20033;-17
2023/05/10 03:29:23;;;;;;;13.05;7.47;;;;;;;10.23;100.00;100576.91;5006277;28;20034;-17
2023/05/10 03:31:49;;;;;;;13.05;7.38;;;;;;;10.31;100.00;100584.75;5007005;28;20077;-17
2023/05/10 03:34:14;;;;;;;11.82;6.93;;;;;;;10.39;100.00;100579.19;5006705;28;20034;-19
2023/05/10 03:36:40;;;;;;;11.75;7.03;;;;;;;10.16;100.00;100565.44;5006647;28;20036;-17
2023/05/10 03:39:05;;;;;;;12.90;7.40;;;;;;;10.29;100.00;100592.09;5006559;28;20026;-18
2023/05/10 03:41:30;;;;;;;11.50;7.30;;;;;;;10.20;100.00;100598.66;5006807;28;20037;-18
2023/05/10 03:43:56;;;;;;;13.27;7.15;;;;;;;10.06;100.00;100587.16;5006560;28;20068;-18
2023/05/10 03:46:21;;;;;;;13.05;7.72;;;;;;;10.08;100.00;100578.97;5006702;28;20076;-17
2023/05/10 03:48:47;;;;;;;11.50;7.05;;;;;;;10.19;100.00;100597.00;5006338;28;20049;-17
2023/05/10 03:51:12;;;;;;;13.00;7.57;;;;;;;10.19;100.00;100586.34;5006555;28;20503;-18
2023/05/10 03:53:37;;;;;;;12.52;7.82;;;;;;;10.47;100.00;100604.84;5006264;28;20030;-19
2023/05/10 03:56:03;;;;;;;12.45;6.95;;;;;;;10.34;100.00;100600.34;5006536;28;20109;-20
2023/05/10 03:58:28;;;;;;;11.02;6.43;;;;;;;10.37;100.00;100599.09;5006539;28;20148;-18
2023/05/10 04:00:54;;;;;;;11.95;6.97;;;;;;;10.35;100.00;100596.63;5006162;28;20037;-18
2023/05/10 04:03:20;;;;;;;10.23;7.20;;;;;;;10.33;100.00;100601.34;5006514;28;20026;-18
2023/05/10 04:05:45;;;;;;;11.02;6.45;;;;;;;10.56;100.00;100608.97;5006073;28;20026;-18
2023/05/10 04:08:10;;;;;;;11.65;6.47;;;;;;;10.63;100.00;100608.97;5005967;28;20057;-18
2023/05/10 04:10:36;;;;;;;10.52;6.60;;;;;;;10.72;100.00;100607.72;5005937;28;20053;-18
2023/05/10 04:13:01;;;;;;;10.20;6.97;;;;;;;10.80;100.00;100614.69;5006125;28;20022;-19
2023/05/10 04:15:27;;;;;;;9.40;6.85;;;;;;;10.54;100.00;100620.84;5006187;28;20029;-17
2023/05/10 04:17:53;;;;;;;14.52;6.68;;;;;;;10.68;100.00;100622.47;5005798;28;20034;-17
2023/05/10 04:20:18;;;;;;;12.70;6.95;;;;;;;10.63;100.00;100619.63;5006031;28;20026;-19
2023/05/10 04:22:44;;;;;;;10.65;6.95;;;;;;;10.77;100.00;100621.25;5005596;28;20455;-18
2023/05/10 04:25:09;;;;;;;11.38;7.22;;;;;;;10.48;100.00;100617.16;5005927;28;20083;-19
2023/05/10 04:27:35;;;;;;;12.13;7.15;;;;;;;10.35;100.00;100612.63;5005908;28;20073;-18
2023/05/10 04:30:02;;;;;;;11.18;6.57;;;;;;;10.55;100.00;100617.97;5005908;28;20440;-18
2023/05/10 04:32:28;;;;;;;12.52;7.22;;;;;;;10.82;100.00;100629.44;5005737;28;20524;-18
2023/05/10 04:34:53;;;;;;;9.45;6.57;;;;;;;10.76;100.00;100608.94;5005955;28;20117;-19
2023/05/10 04:37:19;;;;;;;10.05;7.13;;;;;;;11.03;100.00;100640.94;5005577;28;20018;-18
2023/05/10 04:39:45;;;;;;;13.55;6.45;;;;;;;10.74;100.00;100624.31;5004486;28;20036;-17
2023/05/10 04:42:11;;;;;;;11.73;6.68;;;;;;;10.92;100.00;100620.22;5004544;28;20022;-19
2023/05/10 04:44:36;;;;;;;9.98;6.30;;;;;;;10.82;100.00;100625.97;5005609;28;20026;-19
2023/05/10 04:47:02;;;;;;;9.10;6.22;;;;;;;10.73;100.00;100620.03;5005846;28;20026;-18
2023/05/10 04:49:29;;;;;;;12.05;6.53;;;;;;;10.71;100.00;100622.09;5005138;28;20034;-19
2023/05/10 04:51:55;;;;;;;10.85;6.40;;;;;;;10.86;100.00;100641.34;5005739;28;20421;-18
2023/05/10 04:54:20;;;;;;;12.02;7.07;;;;;;;10.93;100.00;100624.50;5005255;28;20036;-18
2023/05/10 04:56:45;;;;;;;10.90;6.32;;;;;;;10.89;100.00;100633.97;5004093;28;20502;-18
2023/05/10 04:59:11;;;;;;;9.85;6.32;;;;;;;10.92;100.00;100630.91;5005329;28;20497;-18
2023/05/10 05:01:36;;;;;;;10.02;6.65;;;;;;;10.94;100.00;100636.84;5005444;28;20022;-18
2023/05/10 05:04:02;;;;;;;12.05;6.90;;;;;;;11.14;100.00;100637.63;5005571;28;20040;-18
2023/05/10 05:06:27;;;;;;;12.10;6.32;;;;;;;11.19;100.00;100627.13;5005005;28;20742;-18
2023/05/10 05:08:53;;;;;;;10.20;6.22;;;;;;;11.11;100.00;100630.03;5005404;28;20022;-20
2023/05/10 05:11:18;;;;;;;12.00;6.95;;;;;;;11.13;100.00;100640.50;5004982;28;20493;-18
2023/05/10 05:13:43;;;;;;;11.15;6.65;;;;;;;11.03;100.00;100651.59;5005344;28;20076;-18
2023/05/10 05:16:10;;;;;;;11.23;6.63;;;;;;;10.89;100.00;100650.81;5005352;28;20045;-18
2023/05/10 05:18:36;;;;;;;13.00;7.50;;;;;;;11.04;100.00;100650.59;5005199;28;20029;-18
2023/05/10 05:21:01;;;;;;;13.70;7.00;;;;;;;11.08;100.00;100649.16;5005322;28;20091;-18
2023/05/10 05:23:26;;;;;;;11.50;6.05;;;;;;;11.06;100.00;100651.19;5005179;28;20076;-18
2023/05/10 05:25:52;;;;;;;9.95;6.10;;;;;;;11.26;100.00;100643.16;5005006;28;20026;-18
2023/05/10 05:28:19;;;;;;;11.60;5.95;;;;;;;11.52;100.00;100649.44;5005089;28;20030;-18
2023/05/10 05:30:45;;;;;;;10.18;6.43;;;;;;;11.66;100.00;100645.69;5005244;28;20030;-18
2023/05/10 05:33:11;;;;;;;9.40;5.68;;;;;;;11.62;100.00;100645.28;5005073;28;20034;-27
2023/05/10 05:35:36;;;;;;;8.80;5.47;;;;;;;11.27;100.00;100621.56;5005091;28;20026;-18
2023/05/10 05:38:02;;;;;;;11.13;6.00;;;;;;;11.48;100.00;100642.88;5004945;28;20036;-18
2023/05/10 05:40:27;;;;;;;10.52;6.60;;;;;;;11.32;100.00;100628.13;5005094;28;20034;-18
2023/05/10 05:42:53;;;;;;;8.65;5.63;;;;;;;11.13;100.00;100635.97;5004917;28;20030;-18
2023/05/10 05:45:18;;;;;;;9.82;5.93;;;;;;;11.36;100.00;100640.03;5004867;28;20468;-17
2023/05/10 05:47:44;;;;;;;10.00;6.03;;;;;;;11.48;100.00;100649.03;5004840;28;20038;-18
2023/05/10 05:50:09;;;;;;;13.27;6.40;;;;;;;11.60;100.00;100649.22;5004815;28;20759;-17
2023/05/10 05:52:35;;;;;;;14.35;8.68;;;;;;;11.35;100.00;100646.41;5005728;28;20026;-24
2023/05/10 05:55:01;;;;;;;18.27;16.23;;;;;;;11.69;100.00;100644.44;5008775;28;20401;-18
2023/05/10 05:57:26;;;;;;;15.98;14.35;;;;;;;11.89;100.00;100645.22;5007398;28;20042;-18
2023/05/10 05:59:52;;;;;;;21.75;19.80;;;;;;;11.86;100.00;100648.28;5008489;28;20029;-20
2023/05/10 06:02:17;;;;;;;15.45;12.25;;;;;;;12.29;99.50;100657.53;5008752;28;20515;-18
2023/05/10 06:04:43;;;;;;;16.92;14.45;;;;;;;12.19;98.15;100655.34;5008369;28;20117;-18
2023/05/10 06:07:08;;;;;;;12.85;9.15;;;;;;;12.15;97.20;100654.94;5008242;28;20285;-18
2023/05/10 06:09:33;;;;;;;13.75;10.93;;;;;;;12.26;98.74;100656.13;5008348;28;20037;-18
2023/05/10 06:11:59;;;;;;;13.52;11.35;;;;;;;12.30;97.36;100654.66;5008097;28;20114;-20
2023/05/10 06:14:24;;;;;;;12.40;7.65;;;;;;;12.22;98.38;100655.72;5008303;28;20503;-19
2023/05/10 06:16:50;;;;;;;9.20;5.57;;;;;;;12.01;97.96;100648.88;5007683;28;20183;-18
2023/05/10 06:19:15;;;;;;;15.18;8.35;;;;;;;12.41;97.59;100651.28;5020467;28;20029;-19
2023/05/10 06:21:41;;;;;;;15.68;8.43;;;;;;;12.29;96.81;100655.69;5027923;28;20040;-18
2023/05/10 06:24:06;;;;;;;13.82;7.32;;;;;;;12.27;98.42;100657.75;5017658;28;20852;-18
2023/05/10 06:26:32;;;;;;;11.88;6.78;;;;;;;12.66;94.78;100666.53;5007985;28;20029;-20
2023/05/10 06:28:58;;;;;;;10.07;6.22;;;;;;;12.66;95.49;100658.50;5007907;28;20029;-18
2023/05/10 06:31:23;;;;;;;38.05;12.05;;;;;;;12.49;94.69;100671.59;5007806;28;20037;-18
2023/05/10 06:33:48;;;;;;;9.05;5.30;;;;;;;12.50;93.34;100669.75;5007944;28;20462;-18
2023/05/10 06:36:14;;;;;;;9.48;4.80;;;;;;;12.55;92.51;100675.28;5007799;28;20461;-18
2023/05/10 06:38:39;;;;;;;8.18;5.07;;;;;;;12.66;94.37;100687.94;5007789;28;20032;-18
2023/05/10 06:41:05;;;;;;;8.73;5.25;;;;;;;12.84;93.00;100674.63;5007459;28;20026;-24
2023/05/10 06:43:31;;;;;;;9.68;5.50;;;;;;;12.59;92.38;100676.47;5007778;28;20424;-18
2023/05/10 06:45:57;;;;;;;9.38;5.32;;;;;;;12.63;93.68;100669.66;5007597;28;20060;-18
2023/05/10 06:48:23;;;;;;;9.68;5.55;;;;;;;12.96;93.63;100673.91;5007406;28;20046;-18
2023/05/10 06:50:48;;;;;;;8.98;5.22;;;;;;;12.93;91.91;100674.34;5007504;28;20091;-18
2023/05/10 06:53:14;;;;;;;8.38;5.10;;;;;;;12.64;90.22;100668.59;5007000;28;20416;-18
2023/05/10 06:55:39;;;;;;;8.30;4.63;;;;;;;12.65;90.51;100678.28;5007465;28;20033;-19
2023/05/10 06:58:06;;;;;;;7.57;4.65;;;;;;;12.60;91.41;100668.22;5010200;28;20058;-18
2023/05/10 07:00:31;;;;;;;8.15;4.22;;;;;;;12.47;91.61;100676.34;5007574;28;20042;-18
2023/05/10 07:02:56;;;;;;;7.75;4.88;;;;;;;12.64;91.73;100674.78;5006431;28;20040;-20
2023/05/10 07:05:22;;;;;;;9.02;4.80;;;;;;;12.57;91.72;100667.84;5006174;28;20056;-18
2023/05/10 07:07:47;;;;;;;7.95;4.53;;;;;;;12.55;90.73;100672.59;5006822;28;20026;-19
2023/05/10 07:10:13;;;;;;;8.10;4.25;;;;;;;12.54;91.00;100663.72;5007203;28;20033;-18
2023/05/10 07:12:38;;;;;;;7.38;4.15;;;;;;;12.46;90.99;100672.03;5007149;28;20029;-18
2023/05/10 07:15:05;;;;;;;7.40;4.50;;;;;;;12.49;92.39;100670.78;5007205;28;20291;-25
2023/05/10 07:17:30;;;;;;;91.63;53.85;;;;;;;12.73;89.65;100678.03;5006882;28;20417;-20
2023/05/10 07:19:56;;;;;;;22.73;13.73;;;;;;;12.51;91.59;100674.06;5006533;28;20030;-18
2023/05/10 07:22:21;;;;;;;17.80;11.80;;;;;;;12.51;90.86;100680.22;5007171;28;20415;-18
2023/05/10 07:24:47;;;;;;;83.38;70.75;;;;;;;12.73;89.10;100672.66;5006763;28;20025;-18
2023/05/10 07:27:12;;;;;;;39.65;35.75;;;;;;;12.99;88.67;100676.13;5007141;28;20026;-18
2023/05/10 07:29:38;;;;;;;8.48;5.10;;;;;;;12.91;88.60;100676.41;5006702;28;20033;-18
2023/05/10 07:32:04;;;;;;;7.53;5.40;;;;;;;12.88;86.66;100682.22;5007035;28;20057;-24
2023/05/10 07:34:31;;;;;;;10.65;4.80;;;;;;;13.02;90.03;100679.22;5006585;28;20210;-19
2023/05/10 07:37:00;;;;;;;17.17;13.18;;;;;;;13.18;85.66;100685.88;5007260;28;20520;-19
2023/05/10 07:39:26;;;;;;;14.80;8.38;;;;;;;13.10;89.45;100686.16;5007204;28;20109;-31
2023/05/10 07:41:52;;;;;;;9.15;6.97;;;;;;;13.31;85.80;100678.75;5006662;28;20100;-18
2023/05/10 07:44:20;;;;;;;9.13;6.57;;;;;;;13.38;85.91;100679.50;5006745;28;20026;-18
2023/05/10 07:46:46;;;;;;;;;;;;;;;13.29;83.58;100687.00;5007011;28;20029;-19
2023/05/10 07:49:11;;;;;;;8.85;4.75;;;;;;;13.21;84.99;100668.53;5006379;28;20296;-18
2023/05/10 07:51:36;;;;;;;9.10;5.40;;;;;;;13.42;84.02;100696.78;5006341;28;20030;-18
2023/05/10 07:54:02;;;;;;;7.45;4.45;;;;;;;13.16;84.23;100679.09;5006247;28;20022;-17
2023/05/10 07:56:32;;;;;;;6.68;4.40;;;;;;;13.24;86.00;100676.94;5008807;28;20021;-20
2023/05/10 07:59:01;;;;;;;8.70;4.25;;;;;;;13.42;85.95;100691.41;5025733;28;20021;-19
2023/05/10 08:01:31;;;;;;;7.30;4.90;;;;;;;13.49;84.89;100694.84;5025739;28;20041;-18
2023/05/10 08:03:56;;;;;;;21.55;12.18;;;;;;;13.94;82.52;100681.13;5025619;28;20456;-19
2023/05/10 08:06:22;;;;;;;9.90;5.68;;;;;;;14.35;82.34;100684.09;5025694;28;20033;-27
2023/05/10 08:08:53;;;;;;;7.05;4.32;;;;;;;14.14;79.84;100693.44;5025951;28;20025;-18
2023/05/10 08:11:20;;;;;;;7.25;3.80;;;;;;;14.15;81.58;100689.72;5025583;28;20063;-17
2023/05/10 08:13:46;;;;;;;6.82;4.45;;;;;;;14.64;79.42;100696.66;5025462;28;20032;-19
2023/05/10 08:16:12;;;;;;;7.93;4.40;;;;;;;14.49;77.27;100690.09;5025492;28;20476;-18
2023/05/10 08:18:38;;;;;;;7.63;4.38;;;;;;;14.47;80.61;100695.69;5025366;28;20041;-18
2023/05/10 08:21:04;;;;;;;7.97;5.40;;;;;;;14.22;77.32;100687.75;5025660;28;20033;-22
2023/05/10 08:23:30;;;;;;;7.45;4.78;;;;;;;14.16;75.35;100704.75;5025516;28;20025;-17
2023/05/10 08:25:55;;;;;;;7.80;5.13;;;;;;;13.99;79.03;100702.72;5025643;28;20057;-18
2023/05/10 08:28:21;;;;;;;7.03;4.20;;;;;;;14.31;77.71;100710.56;5025216;28;20033;-18
2023/05/10 08:30:46;;;;;;;33.63;30.05;;;;;;;14.16;76.87;100712.81;5025325;28;20029;-18
2023/05/10 08:33:12;;;;;;;33.40;30.05;;;;;;;14.56;74.40;100707.75;5025164;28;20060;-19
2023/05/10 08:35:37;;;;;;;15.20;13.70;;;;;;;14.83;74.47;100699.28;5025136;28;20024;-17
2023/05/10 08:38:02;;;;;;;13.82;10.55;;;;;;;14.94;74.03;100711.09;5025416;28;20088;-19
2023/05/10 08:40:28;;;;;;;11.95;10.63;;;;;;;14.65;73.69;100713.63;5025106;28;20033;-19
2023/05/10 08:43:06;;;;;;;9.00;4.97;;;;;;;14.47;76.24;100707.22;5025104;28;20034;-18
2023/05/10 08:45:36;;;;;;;13.75;9.95;;;;;;;14.79;72.71;100698.94;5025529;28;20048;-19
2023/05/10 08:48:02;;;;;;;6.97;4.53;;;;;;;14.85;72.56;100705.22;5025329;28;20114;-17
2023/05/10 08:50:29;;;;;;;10.02;7.22;;;;;;;14.91;71.40;100724.97;5025138;28;20116;-18
2023/05/10 08:52:59;;;;;;;13.07;8.57;;;;;;;15.20;71.91;100707.13;5025480;28;20079;-20
2023/05/10 08:55:25;;;;;;;14.55;10.13;;;;;;;15.44;72.82;100714.13;5024759;28;20040;-18
2023/05/10 08:57:51;;;;;;;23.45;18.13;;;;;;;15.23;70.41;100712.03;5025332;28;20029;-18
2023/05/10 09:00:18;;;;;;;13.48;11.05;;;;;;;15.37;71.39;100707.25;5024897;28;20516;-18
2023/05/10 09:02:45;;;;;;;23.73;21.27;;;;;;;15.32;70.84;100713.31;5025322;28;20037;-18
2023/05/10 09:05:12;;;;;;;8.80;4.80;;;;;;;14.80;70.87;100697.88;5025135;28;20032;-19
2023/05/10 09:07:37;;;;;;;9.05;6.13;;;;;;;14.60;73.77;100708.91;5024993;28;20053;-19
2023/05/10 09:10:04;;;;;;;7.70;4.00;;;;;;;14.82;73.17;100711.88;5025108;28;20086;-18
2023/05/10 09:12:30;;;;;;;8.40;3.92;;;;;;;14.80;74.03;100700.56;5024973;28;20543;-18
2023/05/10 09:14:57;;;;;;;6.82;3.55;;;;;;;14.24;76.20;100704.44;5025368;28;20719;-18
2023/05/10 09:17:25;;;;;;;12.77;9.50;;;;;;;14.21;75.01;100708.41;5024843;28;20139;-20
2023/05/10 09:20:00;;;;;;;7.72;3.70;;;;;;;13.95;79.23;100685.44;5024690;28;20025;-18
2023/05/10 09:22:26;;;;;;;6.65;3.90;;;;;;;14.05;78.96;100701.00;5024802;28;20025;-19
2023/05/10 09:25:06;;;;;;;5.68;3.30;;;;;;;14.53;75.97;100708.19;5024584;28;20032;-19
2023/05/10 09:27:32;;;;;;;7.47;4.45;;;;;;;14.76;72.51;100703.94;5025691;28;20049;-18
2023/05/10 09:29:57;;;;;;;6.78;3.80;;;;;;;14.74;74.10;100703.34;5029261;28;20094;-17
2023/05/10 09:32:39;;;;;;;5.57;3.10;;;;;;;14.64;73.65;100687.81;5028907;28;20116;-18
2023/05/10 09:35:08;;;;;;;6.75;3.67;;;;;;;14.85;72.71;100700.69;5028851;28;20034;-26
2023/05/10 09:37:33;;;;;;;8.38;3.38;;;;;;;15.15;73.68;100698.97;5028919;28;20465;-18
2023/05/10 09:39:59;;;;;;;7.68;3.50;;;;;;;15.35;69.20;100693.22;5029071;28;20027;-19
2023/05/10 09:42:25;;;;;;;9.02;3.97;;;;;;;16.19;66.33;100695.50;5028724;28;20037;-18
2023/05/10 09:44:50;;;;;;;4.93;3.17;;;;;;;16.13;61.67;100693.78;5028837;28;20018;-19
2023/05/10 09:47:19;;;;;;;7.38;3.33;;;;;;;16.37;67.63;100683.72;5028892;28;20416;-18
2023/05/10 09:49:50;;;;;;;5.30;3.50;;;;;;;15.96;63.20;100664.94;5028332;28;20029;-18
2023/05/10 09:52:15;;;;;;;6.82;3.30;;;;;;;16.28;63.23;100669.81;5028499;28;20103;-18
2023/05/10 09:54:52;;;;;;;5.35;3.13;;;;;;;16.28;65.02;100664.44;5028562;28;20029;-18
2023/05/10 09:57:21;;;;;;;6.47;2.90;;;;;;;16.27;60.99;100676.28;5028451;28;20035;-19
2023/05/10 09:59:47;;;;;;;16.98;9.80;;;;;;;15.88;61.06;100665.31;5028503;28;20087;-18
2023/05/10 10:02:13;;;;;;;8.98;5.53;;;;;;;16.11;61.79;100667.09;5028353;28;20026;-18
2023/05/10 10:04:40;;;;;;;7.47;4.05;;;;;;;16.07;65.31;100664.06;5028462;28;20041;-19
2023/05/10 10:07:06;;;;;;;7.93;5.53;;;;;;;16.27;66.99;100660.94;5028495;28;20076;-23
2023/05/10 10:09:33;;;;;;;6.30;3.80;;;;;;;16.15;63.59;100662.06;5028111;28;20455;-18
2023/05/10 10:12:02;;;;;;;8.05;5.80;;;;;;;16.61;59.00;100668.22;5027977;28;20052;-18
2023/05/10 10:14:29;;;;;;;6.05;3.67;;;;;;;16.84;64.05;100654.63;5028093;28;20025;-19
2023/05/10 10:16:54;;;;;;;6.60;4.00;;;;;;;16.95;60.06;100654.78;5028207;28;20032;-18
2023/05/10 10:19:20;;;;;;;21.38;19.08;;;;;;;17.15;57.76;100657.78;5028189;28;20029;-18
2023/05/10 10:21:47;;;;;;;38.63;34.92;;;;;;;16.79;60.24;100654.50;5027785;28;20028;-19
2023/05/10 10:24:12;;;;;;;7.30;4.97;;;;;;;16.64;61.07;100640.81;5028453;28;20028;-19
2023/05/10 10:26:40;;;;;;;8.80;4.82;;;;;;;15.99;62.90;100639.44;5027779;28;20029;-18
2023/05/10 10:29:39;;;;;;;7.80;6.53;;;;;;;16.28;64.22;100642.91;5027921;28;20492;-20
2023/05/10 10:32:23;;;;;;;10.13;5.13;;;;;;;16.04;62.89;100642.22;5028017;28;20120;-19
2023/05/10 10:34:49;;;;;;;6.85;4.82;;;;;;;16.21;57.52;100647.66;5027547;28;20471;-18
2023/05/10 10:37:15;;;;;;;6.70;4.15;;;;;;;16.32;61.00;100645.94;5027697;28;20064;-20
2023/05/10 10:39:40;;;;;;;6.03;4.38;;;;;;;15.92;61.01;100653.03;5027566;28;20797;-17
2023/05/10 10:42:05;;;;;;;9.15;4.00;;;;;;;16.06;60.24;100640.94;5027759;28;20413;-18
2023/05/10 10:44:36;;;;;;;5.70;4.10;;;;;;;15.87;61.35;100642.16;5027535;28;20029;-17
2023/05/10 10:47:32;;;;;;;7.50;5.38;;;;;;;16.74;58.02;100635.59;5027719;28;20029;-19
2023/05/10 10:49:58;;;;;;;8.52;5.53;;;;;;;17.41;53.27;100639.28;5026995;28;20124;-19
2023/05/10 10:52:40;;;;;;;6.88;4.60;;;;;;;17.63;54.20;100640.09;5027467;28;20136;-18
2023/05/10 10:55:08;;;;;;;8.15;5.57;;;;;;;17.90;52.25;100625.00;5026412;28;20033;-19
2023/05/10 10:57:40;;;;;;;6.03;4.70;;;;;;;18.36;53.06;100644.38;5027331;28;20021;-18
2023/05/10 11:00:23;;;;;;;6.13;3.78;;;;;;;17.59;50.95;100641.66;5027311;28;20491;-18
2023/05/10 11:02:55;;;;;;;11.88;4.50;;;;;;;17.72;55.87;100634.25;5027201;28;20060;-19
2023/05/10 11:05:36;;;;;;;6.13;3.60;;;;;;;17.85;52.40;100636.56;5027360;28;20111;-18
2023/05/10 11:08:10;;;;;;;6.10;3.42;;;;;;;17.05;55.62;100636.09;5027262;28;20045;-18
2023/05/10 11:10:36;;;;;;;5.28;3.72;;;;;;;17.21;55.18;100637.94;5027192;28;20095;-17
2023/05/10 11:13:06;;;;;;;4.70;3.80;;;;;;;17.12;55.83;100636.75;5026844;28;20416;-18
2023/05/10 11:15:37;;;;;;;7.03;4.03;;;;;;;17.59;53.33;100630.88;5027115;28;20030;-17
2023/05/10 11:18:20;;;;;;;5.68;4.03;;;;;;;17.81;50.42;100632.72;5027000;28;20124;-18
2023/05/10 11:21:13;;;;;;;6.60;4.55;;;;;;;17.58;53.56;100640.00;5026890;28;20037;-20